Time;durP1;ratioP1;P1;durP2;ratioP2;P2;SDS_P1;SDS_P2;PMS_P1;PMS_P2;Temp;Humidity;BMP_temperature;BMP_pressure;BME280_temperature;BME280_humidity;BME280_pressure;Samples;Min_cycle;Max_cycle;Signal;HPM_P1;HPM_P2
2023/10/10 00:02:04;;;;;;;;;;;22.10;56.10;;;;;;1559867;75;1200;-63
2023/10/10 00:03:59;;;;;;;;;;;22.10;56.10;;;;;;1562216;75;1483;-64
2023/10/10 00:06:06;;;;;;;;;;;22.20;56.20;;;;;;1564017;75;751;-64
2023/10/10 00:08:05;;;;;;;;;;;22.20;56.20;;;;;;1561147;75;1547;-60
2023/10/10 00:10:12;;;;;;;;;;;22.10;56.20;;;;;;1564807;75;1125;-62
2023/10/10 00:12:13;;;;;;;;;;;22.20;56.20;;;;;;1559284;75;1607;-63
2023/10/10 00:14:19;;;;;;;;;;;22.10;56.10;;;;;;1560391;75;702;-64
2023/10/10 00:16:26;;;;;;;;;;;22.20;56.20;;;;;;1563154;75;1572;-63
2023/10/10 00:18:29;;;;;;;;;;;22.10;56.10;;;;;;1561778;75;1919;-63
2023/10/10 00:20:35;;;;;;;;;;;22.10;56.00;;;;;;1567910;75;1161;-64
2023/10/10 00:22:36;;;;;;;;;;;22.10;55.90;;;;;;1566692;74;1433;-64
2023/10/10 00:24:38;;;;;;;;;;;22.10;56.00;;;;;;1554288;75;729;-64
2023/10/10 00:26:45;;;;;;;;;;;22.10;56.00;;;;;;1559484;74;779;-64
2023/10/10 00:28:45;;;;;;;;;;;22.10;56.00;;;;;;1564099;75;1610;-64
2023/10/10 00:30:47;;;;;;;;;;;22.10;56.00;;;;;;1564023;75;1626;-64
2023/10/10 00:32:50;;;;;;;;;;;22.10;56.00;;;;;;1561249;75;1056;-63
2023/10/10 00:34:52;;;;;;;;;;;22.20;56.00;;;;;;1564183;75;702;-63
2023/10/10 00:36:54;;;;;;;;;;;22.10;56.00;;;;;;1565134;74;1933;-63
2023/10/10 00:39:06;;;;;;;;;;;22.10;56.00;;;;;;1557194;75;669;-63
2023/10/10 00:41:07;;;;;;;;;;;22.10;56.20;;;;;;1562469;75;1741;-64
2023/10/10 00:43:13;;;;;;;;;;;22.10;56.40;;;;;;1557019;75;1642;-64
2023/10/10 00:45:15;;;;;;;;;;;22.20;56.40;;;;;;1560856;75;1545;-63
2023/10/10 00:47:21;;;;;;;;;;;22.20;56.50;;;;;;1565905;75;875;-62
2023/10/10 00:49:23;;;;;;;;;;;22.10;56.50;;;;;;1557949;74;1474;-64
2023/10/10 00:51:25;;;;;;;;;;;22.10;56.50;;;;;;1554029;75;1129;-61
2023/10/10 00:53:28;;;;;;;;;;;22.10;56.50;;;;;;1558098;75;1663;-63
2023/10/10 00:55:33;;;;;;;;;;;22.10;56.70;;;;;;1557873;75;764;-63
2023/10/10 00:57:35;;;;;;;;;;;22.10;56.70;;;;;;1556505;75;1923;-63
2023/10/10 00:59:43;;;;;;;;;;;22.20;56.60;;;;;;1554087;75;1649;-63
2023/10/10 01:01:47;;;;;;;;;;;22.10;56.70;;;;;;1559081;75;720;-63
2023/10/10 01:03:50;;;;;;;;;;;22.10;56.60;;;;;;1560856;75;691;-63
2023/10/10 01:05:55;;;;;;;;;;;22.10;56.80;;;;;;1560557;75;862;-63
2023/10/10 01:07:59;;;;;;;;;;;22.20;56.70;;;;;;1553922;75;1736;-62
2023/10/10 01:10:11;;;;;;;;;;;22.10;56.80;;;;;;1562048;75;1156;-63
2023/10/10 01:12:04;;;;;;;;;;;22.10;56.70;;;;;;1560693;75;1535;-64
2023/10/10 01:14:06;;;;;;;;;;;22.20;56.80;;;;;;1559021;75;922;-64
2023/10/10 01:16:09;;;;;;;;;;;22.10;56.80;;;;;;1561654;75;831;-61
2023/10/10 01:18:13;;;;;;;;;;;22.20;56.80;;;;;;1554924;75;1942;-62
2023/10/10 01:20:24;;;;;;;;;;;22.10;56.80;;;;;;1557396;75;1117;-62
2023/10/10 01:22:37;;;;;;;;;;;22.20;56.90;;;;;;1555075;74;1713;-62
2023/10/10 01:24:31;;;;;;;;;;;22.20;56.90;;;;;;1551592;75;1774;-61
2023/10/10 01:26:33;;;;;;;;;;;22.10;56.80;;;;;;1557145;75;1684;-62
2023/10/10 01:28:35;;;;;;;;;;;22.20;56.80;;;;;;1560484;75;734;-62
2023/10/10 01:33:01;;;;;;;;;;;22.10;56.70;;;;;;1561490;75;710;-63
2023/10/10 01:35:02;;;;;;;;;;;22.20;56.60;;;;;;1562730;75;1792;-64
2023/10/10 01:37:29;;;;;;;;;;;22.20;56.80;;;;;;1550938;75;732;-64
2023/10/10 01:39:19;;;;;;;;;;;22.10;56.80;;;;;;1549762;75;1936;-63
2023/10/10 01:41:22;;;;;;;;;;;22.10;56.80;;;;;;1559363;75;1636;-63
2023/10/10 01:43:25;;;;;;;;;;;22.10;56.80;;;;;;1555000;74;754;-64
2023/10/10 01:45:29;;;;;;;;;;;22.10;56.80;;;;;;1557968;75;804;-64
2023/10/10 01:47:34;;;;;;;;;;;22.10;56.80;;;;;;1562953;75;780;-64
2023/10/10 01:49:35;;;;;;;;;;;22.20;56.80;;;;;;1553242;75;1680;-64
2023/10/10 01:51:42;;;;;;;;;;;22.20;56.90;;;;;;1562858;75;1142;-64
2023/10/10 01:53:41;;;;;;;;;;;22.20;56.80;;;;;;1544947;75;1630;-64
2023/10/10 01:55:47;;;;;;;;;;;22.10;56.80;;;;;;1560325;75;1541;-63
2023/10/10 01:57:48;;;;;;;;;;;22.20;56.80;;;;;;1554379;75;1915;-63
2023/10/10 01:59:51;;;;;;;;;;;22.10;56.80;;;;;;1550459;75;1136;-64
2023/10/10 02:01:54;;;;;;;;;;;22.10;56.80;;;;;;1565332;75;696;-62
2023/10/10 02:03:56;;;;;;;;;;;22.20;56.80;;;;;;1562495;75;646;-64
2023/10/10 02:05:59;;;;;;;;;;;22.20;56.80;;;;;;1559177;75;788;-63
2023/10/10 02:08:03;;;;;;;;;;;22.10;56.90;;;;;;1555844;75;782;-64
2023/10/10 02:10:17;;;;;;;;;;;22.10;56.80;;;;;;1564182;75;1248;-64
2023/10/10 02:12:22;;;;;;;;;;;22.10;56.80;;;;;;1556389;75;1632;-63
2023/10/10 02:14:30;;;;;;;;;;;22.20;56.80;;;;;;1559642;75;1613;-63
2023/10/10 02:16:35;;;;;;;;;;;22.20;56.90;;;;;;1564320;75;1690;-63
2023/10/10 02:18:44;;;;;;;;;;;22.20;56.80;;;;;;1553568;75;1942;-63
2023/10/10 02:23:01;;;;;;;;;;;22.10;56.90;;;;;;1549896;75;1320;-64
2023/10/10 02:27:32;;;;;;;;;;;22.20;56.90;;;;;;1585238;74;683;-60
2023/10/10 02:31:35;;;;;;;;;;;22.20;56.90;;;;;;1549992;74;1156;-65
2023/10/10 02:33:37;;;;;;;;;;;22.20;56.90;;;;;;1542617;75;758;-65
2023/10/10 02:36:00;;;;;;;;;;;22.20;56.90;;;;;;1540630;75;801;-65
2023/10/10 02:37:45;;;;;;;;;;;22.20;56.80;;;;;;1538796;75;1916;-64
2023/10/10 02:40:31;;;;;;;;;;;22.10;56.90;;;;;;1550030;75;1522;-65
2023/10/10 02:41:59;;;;;;;;;;;22.20;56.90;;;;;;1525723;75;1426;-65
2023/10/10 02:44:09;;;;;;;;;;;22.20;56.90;;;;;;1550099;75;1713;-64
2023/10/10 02:46:00;;;;;;;;;;;22.20;57.00;;;;;;1538894;75;1368;-64
2023/10/10 02:48:07;;;;;;;;;;;22.20;57.10;;;;;;1543130;75;827;-66
2023/10/10 02:50:10;;;;;;;;;;;22.20;57.30;;;;;;1536256;75;1524;-64
2023/10/10 02:52:14;;;;;;;;;;;22.20;57.10;;;;;;1543441;75;1644;-65
2023/10/10 02:56:25;;;;;;;;;;;22.20;57.00;;;;;;1537050;75;875;-64
2023/10/10 02:58:28;;;;;;;;;;;22.10;57.00;;;;;;1548045;75;1947;-66
2023/10/10 03:00:34;;;;;;;;;;;22.20;56.90;;;;;;1551181;75;1161;-65
2023/10/10 03:02:49;;;;;;;;;;;22.10;56.90;;;;;;1539956;75;1555;-66
2023/10/10 03:04:55;;;;;;;;;;;22.20;56.90;;;;;;1538016;75;1549;-66
2023/10/10 03:06:56;;;;;;;;;;;22.20;56.90;;;;;;1542909;75;1550;-65
2023/10/10 03:09:14;;;;;;;;;;;22.20;56.80;;;;;;1540621;75;709;-65
2023/10/10 03:11:02;;;;;;;;;;;22.20;56.80;;;;;;1541837;75;1626;-65
2023/10/10 03:13:12;;;;;;;;;;;22.10;56.80;;;;;;1547631;75;723;-66
2023/10/10 03:17:43;;;;;;;;;;;22.20;57.00;;;;;;1543530;75;902;-63
2023/10/10 03:19:28;;;;;;;;;;;22.10;56.80;;;;;;1533417;75;1953;-64
2023/10/10 03:21:44;;;;;;;;;;;22.20;56.80;;;;;;1532080;75;1156;-64
2023/10/10 03:24:07;;;;;;;;;;;22.20;56.80;;;;;;1543159;75;1568;-64
2023/10/10 03:26:04;;;;;;;;;;;22.10;56.70;;;;;;1540464;75;1220;-64
2023/10/10 03:27:54;;;;;;;;;;;22.10;56.60;;;;;;1531827;75;1671;-64
2023/10/10 03:30:15;;;;;;;;;;;22.20;56.70;;;;;;1543836;75;1752;-63
2023/10/10 03:34:21;;;;;;;;;;;22.20;56.60;;;;;;1542666;75;1651;-64
2023/10/10 03:36:31;;;;;;;;;;;22.10;56.60;;;;;;1536978;75;780;-62
2023/10/10 03:38:43;;;;;;;;;;;22.20;56.50;;;;;;1540494;75;1931;-63
2023/10/10 05:25:14;;;;;;;;;;;22.10;58.80;;;;;;1542885;75;1557;-65
2023/10/10 05:27:16;;;;;;;;;;;22.10;58.70;;;;;;1541055;75;689;-64
2023/10/10 05:29:21;;;;;;;;;;;22.20;58.70;;;;;;1543199;75;734;-64
2023/10/10 05:31:23;;;;;;;;;;;22.10;58.70;;;;;;1544358;74;1179;-65
2023/10/10 05:33:26;;;;;;;;;;;22.20;58.40;;;;;;1541735;75;719;-67
2023/10/10 05:35:29;;;;;;;;;;;22.10;58.30;;;;;;1534823;75;673;-65
2023/10/10 05:37:31;;;;;;;;;;;22.10;58.30;;;;;;1546732;75;740;-65
2023/10/10 05:39:37;;;;;;;;;;;22.10;58.20;;;;;;1542167;75;1975;-66
2023/10/10 05:41:40;;;;;;;;;;;22.10;58.20;;;;;;1543032;75;1699;-66
2023/10/10 05:43:41;;;;;;;;;;;22.10;58.20;;;;;;1541217;75;1706;-65
2023/10/10 05:45:43;;;;;;;;;;;22.10;58.10;;;;;;1547710;75;823;-66
2023/10/10 05:47:45;;;;;;;;;;;22.20;58.10;;;;;;1536504;75;704;-65
2023/10/10 05:49:48;;;;;;;;;;;22.10;58.00;;;;;;1539614;75;1110;-65
2023/10/10 05:51:51;;;;;;;;;;;22.20;58.00;;;;;;1544574;75;686;-65
2023/10/10 05:53:53;;;;;;;;;;;22.10;58.10;;;;;;1544360;75;1480;-65
2023/10/10 05:55:58;;;;;;;;;;;22.20;58.00;;;;;;1541437;75;791;-65
2023/10/10 05:57:59;;;;;;;;;;;22.10;58.00;;;;;;1544390;75;1638;-66
2023/10/10 06:00:02;;;;;;;;;;;22.10;58.00;;;;;;1542958;75;1940;-67
2023/10/10 06:02:10;;;;;;;;;;;22.10;57.90;;;;;;1541708;75;1652;-68
2023/10/10 06:04:08;;;;;;;;;;;22.10;57.90;;;;;;1537982;75;1624;-66
2023/10/10 06:06:15;;;;;;;;;;;22.10;57.80;;;;;;1554679;75;782;-67
2023/10/10 06:08:17;;;;;;;;;;;22.10;57.80;;;;;;1540114;75;1353;-63
2023/10/10 06:10:19;;;;;;;;;;;22.10;57.80;;;;;;1541824;75;1140;-62
2023/10/10 06:12:21;;;;;;;;;;;22.10;57.80;;;;;;1534526;75;751;-63
2023/10/10 06:14:24;;;;;;;;;;;22.10;57.70;;;;;;1532765;75;851;-62
2023/10/10 06:16:26;;;;;;;;;;;22.10;57.70;;;;;;1536632;75;694;-63
2023/10/10 06:18:27;;;;;;;;;;;22.10;57.70;;;;;;1539463;75;755;-61
2023/10/10 06:20:31;;;;;;;;;;;22.10;57.60;;;;;;1546602;75;1126;-63
2023/10/10 06:22:33;;;;;;;;;;;22.10;57.60;;;;;;1542891;75;1590;-61
2023/10/10 06:24:35;;;;;;;;;;;22.10;57.60;;;;;;1548884;75;689;-63
2023/10/10 06:26:37;;;;;;;;;;;22.10;57.60;;;;;;1543458;75;715;-62
2023/10/10 06:28:45;;;;;;;;;;;22.10;57.50;;;;;;1549980;75;797;-63
2023/10/10 06:30:48;;;;;;;;;;;22.10;57.60;;;;;;1551236;75;1202;-63
2023/10/10 06:32:50;;;;;;;;;;;22.10;57.60;;;;;;1544355;75;730;-62
2023/10/10 06:35:16;;;;;;;;;;;22.10;57.50;;;;;;1547520;75;670;-63
2023/10/10 06:36:56;;;;;;;;;;;22.10;57.50;;;;;;1543800;75;1621;-62
2023/10/10 06:41:17;;;;;;;;;;;22.10;57.40;;;;;;1544227;75;1308;-62
2023/10/10 06:43:10;;;;;;;;;;;22.10;57.40;;;;;;1537859;75;1613;-62
2023/10/10 06:45:21;;;;;;;;;;;22.10;57.30;;;;;;1539604;75;720;-63
2023/10/10 06:47:17;;;;;;;;;;;22.10;57.30;;;;;;1543448;75;1663;-63
2023/10/10 06:49:20;;;;;;;;;;;22.10;57.30;;;;;;1538999;75;782;-62
2023/10/10 06:51:22;;;;;;;;;;;22.10;57.20;;;;;;1543098;75;1528;-63
2023/10/10 06:53:36;;;;;;;;;;;22.10;57.20;;;;;;1543213;75;639;-63
2023/10/10 06:55:38;;;;;;;;;;;22.10;57.20;;;;;;1544442;75;670;-63
2023/10/10 06:57:43;;;;;;;;;;;22.10;57.10;;;;;;1545278;75;705;-62
2023/10/10 06:59:44;;;;;;;;;;;22.10;57.20;;;;;;1545671;75;1916;-61
2023/10/10 07:01:46;;;;;;;;;;;22.10;57.10;;;;;;1543035;75;770;-63
2023/10/10 07:03:54;;;;;;;;;;;22.10;57.10;;;;;;1535675;75;1502;-63
2023/10/10 07:05:51;;;;;;;;;;;22.10;57.10;;;;;;1546908;75;1581;-62
2023/10/10 07:08:38;;;;;;;;;;;22.10;57.10;;;;;;1544263;75;753;-63
2023/10/10 07:10:00;;;;;;;;;;;22.10;57.10;;;;;;1537502;75;1319;-63
2023/10/10 07:12:10;;;;;;;;;;;22.10;57.10;;;;;;1535635;75;1010;-62
2023/10/10 07:14:15;;;;;;;;;;;22.10;57.10;;;;;;1540943;75;685;-63
2023/10/10 07:16:16;;;;;;;;;;;22.10;57.10;;;;;;1542280;75;1538;-63
2023/10/10 07:18:25;;;;;;;;;;;22.10;57.00;;;;;;1543887;75;1517;-63
2023/10/10 07:22:47;;;;;;;;;;;22.10;57.00;;;;;;1542374;75;739;-63
2023/10/10 07:24:55;;;;;;;;;;;22.10;57.00;;;;;;1540723;75;787;-63
2023/10/10 07:27:52;;;;;;;;;;;22.10;56.90;;;;;;1549326;75;1657;-62
2023/10/10 07:29:22;;;;;;;;;;;22.10;56.90;;;;;;1520625;75;1313;-62
2023/10/10 07:31:11;;;;;;;;;;;22.10;56.80;;;;;;1535752;75;1744;-62
2023/10/10 07:33:13;;;;;;;;;;;22.10;56.90;;;;;;1511359;77;1704;-63
2023/10/10 07:35:15;;;;;;;;;;;22.10;56.90;;;;;;1541801;75;715;-63
2023/10/10 07:37:18;;;;;;;;;;;22.10;56.80;;;;;;1545950;75;581;-62
2023/10/10 07:39:32;;;;;;;;;;;22.10;56.80;;;;;;1543393;75;1924;-63
2023/10/10 07:41:35;;;;;;;;;;;22.10;56.90;;;;;;1536592;75;1166;-62
2023/10/10 07:43:37;;;;;;;;;;;22.20;56.80;;;;;;1540162;75;810;-62
2023/10/10 07:50:08;;;;;;;;;;;22.20;56.80;;;;;;1541842;75;1201;-63
2023/10/10 07:52:04;;;;;;;;;;;22.20;56.80;;;;;;1544904;75;1448;-63
2023/10/10 07:54:12;;;;;;;;;;;22.10;56.80;;;;;;1531970;75;858;-63
2023/10/10 07:56:16;;;;;;;;;;;22.10;56.70;;;;;;1540650;75;721;-63
2023/10/10 07:58:20;;;;;;;;;;;22.20;56.70;;;;;;1544268;75;1938;-63
2023/10/10 08:00:27;;;;;;;;;;;22.20;56.70;;;;;;1545437;75;1898;-62
2023/10/10 08:02:32;;;;;;;;;;;22.20;56.60;;;;;;1538526;75;1469;-63
2023/10/10 08:04:37;;;;;;;;;;;22.30;56.80;;;;;;1547274;75;711;-62
2023/10/10 08:06:38;;;;;;;;;;;22.30;56.60;;;;;;1541916;75;1682;-63
2023/10/10 08:08:40;;;;;;;;;;;22.20;56.50;;;;;;1550155;75;759;-62
2023/10/10 08:10:44;;;;;;;;;;;22.20;56.50;;;;;;1542919;75;1141;-63
2023/10/10 08:12:46;;;;;;;;;;;22.30;56.60;;;;;;1557026;75;694;-62
2023/10/10 08:14:48;;;;;;;;;;;22.30;56.50;;;;;;1545740;75;1531;-62
2023/10/10 08:16:58;;;;;;;;;;;22.30;56.50;;;;;;1546560;75;733;-63
2023/10/10 08:18:54;;;;;;;;;;;22.30;56.50;;;;;;1541778;75;1559;-61
2023/10/10 08:23:03;;;;;;;;;;;22.30;56.40;;;;;;1538517;75;855;-63
2023/10/10 08:25:05;;;;;;;;;;;22.40;56.40;;;;;;1529048;75;1875;-62
2023/10/10 08:27:10;;;;;;;;;;;22.30;56.30;;;;;;1548332;75;899;-63
2023/10/10 08:29:11;;;;;;;;;;;22.30;56.40;;;;;;1540409;75;1675;-62
2023/10/10 08:31:16;;;;;;;;;;;22.30;56.30;;;;;;1530393;75;1197;-60
2023/10/10 08:33:18;;;;;;;;;;;22.40;56.30;;;;;;1542274;75;937;-63
2023/10/10 08:35:21;;;;;;;;;;;22.30;56.30;;;;;;1537664;75;783;-61
2023/10/10 08:37:27;;;;;;;;;;;22.40;56.20;;;;;;1542343;75;658;-62
2023/10/10 08:39:32;;;;;;;;;;;22.40;56.20;;;;;;1544536;75;1914;-62
2023/10/10 08:41:31;;;;;;;;;;;22.40;56.10;;;;;;1543680;75;1677;-63
2023/10/10 08:43:32;;;;;;;;;;;22.40;56.20;;;;;;1543736;75;1678;-63
2023/10/10 08:45:43;;;;;;;;;;;22.40;56.10;;;;;;1543171;75;730;-63
2023/10/10 08:47:42;;;;;;;;;;;22.40;56.10;;;;;;1536979;75;1606;-61
2023/10/10 08:49:41;;;;;;;;;;;22.40;56.10;;;;;;1540693;75;1440;-62
2023/10/10 08:51:44;;;;;;;;;;;22.40;56.10;;;;;;1541415;75;798;-63
2023/10/10 08:53:46;;;;;;;;;;;22.50;56.20;;;;;;1531849;75;788;-62
2023/10/10 08:55:56;;;;;;;;;;;22.40;56.10;;;;;;1543020;75;874;-63
2023/10/10 08:57:52;;;;;;;;;;;22.50;56.20;;;;;;1540797;75;1643;-62
2023/10/10 08:59:54;;;;;;;;;;;22.40;56.00;;;;;;1542765;75;1935;-62
2023/10/10 09:01:57;;;;;;;;;;;22.50;56.20;;;;;;1543311;75;766;-61
2023/10/10 09:03:58;;;;;;;;;;;22.40;56.00;;;;;;1542547;75;759;-62
2023/10/10 09:06:02;;;;;;;;;;;22.50;56.00;;;;;;1543527;75;715;-63
2023/10/10 09:08:26;;;;;;;;;;;22.40;56.00;;;;;;1532537;75;2244;-63
2023/10/10 09:10:18;;;;;;;;;;;22.40;56.00;;;;;;1532473;75;1584;-63
2023/10/10 09:12:20;;;;;;;;;;;22.40;56.00;;;;;;1542797;75;740;-63
2023/10/10 09:14:22;;;;;;;;;;;22.40;56.00;;;;;;1544431;75;738;-63
2023/10/10 09:16:44;;;;;;;;;;;22.40;56.00;;;;;;1523058;76;1246;-63
2023/10/10 09:18:42;;;;;;;;;;;22.40;56.00;;;;;;1535026;75;1620;-62
2023/10/10 09:20:47;;;;;;;;;;;22.40;55.90;;;;;;1539538;75;1955;-62
2023/10/10 09:22:54;;;;;;;;;;;22.50;56.00;;;;;;1542752;75;736;-63
2023/10/10 09:24:56;;;;;;;;;;;22.50;56.00;;;;;;1543713;75;1530;-63
2023/10/10 09:26:59;;;;;;;;;;;22.40;55.90;;;;;;1542948;75;794;-63
2023/10/10 09:29:15;;;;;;;;;;;22.40;55.90;;;;;;1541778;75;768;-63
2023/10/10 09:31:19;;;;;;;;;;;22.50;56.00;;;;;;1543928;75;1739;-64
2023/10/10 09:33:45;;;;;;;;;;;22.40;55.90;;;;;;1546035;75;1643;-62
2023/10/10 09:35:20;;;;;;;;;;;22.50;56.00;;;;;;1512939;75;1423;-62
2023/10/10 09:37:29;;;;;;;;;;;22.40;55.80;;;;;;1542314;75;1515;-63
2023/10/10 09:39:40;;;;;;;;;;;22.40;55.80;;;;;;1538174;75;1646;-63
2023/10/10 09:46:35;;;;;;;;;;;22.50;56.00;;;;;;1541843;75;863;-63
2023/10/10 09:48:33;;;;;;;;;;;22.50;56.00;;;;;;1539054;75;1646;-62
2023/10/10 09:50:37;;;;;;;;;;;22.50;55.90;;;;;;1542052;75;1765;-63
2023/10/10 09:52:50;;;;;;;;;;;22.50;56.00;;;;;;1547605;75;1555;-64
2023/10/10 09:54:55;;;;;;;;;;;22.40;55.80;;;;;;1543348;75;1685;-64
2023/10/10 09:56:56;;;;;;;;;;;22.40;55.80;;;;;;1541467;75;1970;-63
2023/10/10 09:58:59;;;;;;;;;;;22.50;55.90;;;;;;1538649;75;723;-64
2023/10/10 10:01:14;;;;;;;;;;;22.50;55.90;;;;;;1542676;75;1920;-65
2023/10/10 10:05:30;;;;;;;;;;;22.40;55.70;;;;;;1541993;75;860;-67
2023/10/10 10:07:37;;;;;;;;;;;22.50;55.80;;;;;;1538258;75;1584;-67
2023/10/10 10:09:46;;;;;;;;;;;22.50;55.80;;;;;;1542129;75;1608;-65
2023/10/10 10:11:50;;;;;;;;;;;22.50;55.80;;;;;;1544681;75;2032;-69
2023/10/10 10:14:11;;;;;;;;;;;22.50;55.80;;;;;;1539679;75;890;-67
2023/10/10 10:16:15;;;;;;;;;;;22.50;55.80;;;;;;1549986;75;1684;-67
2023/10/10 10:18:26;;;;;;;;;;;22.40;55.70;;;;;;1545761;75;1620;-65
2023/10/10 10:20:33;;;;;;;;;;;22.50;55.80;;;;;;1551384;75;1955;-64
2023/10/10 10:22:30;;;;;;;;;;;22.40;55.70;;;;;;1535262;75;1631;-68
2023/10/10 10:24:33;;;;;;;;;;;22.50;55.80;;;;;;1526899;77;797;-65
2023/10/10 10:26:41;;;;;;;;;;;22.40;55.70;;;;;;1543254;75;836;-64
2023/10/10 10:28:40;;;;;;;;;;;22.50;55.80;;;;;;1515396;77;1681;-64
2023/10/10 10:30:50;;;;;;;;;;;22.50;55.80;;;;;;1538528;75;2141;-64
2023/10/10 10:32:55;;;;;;;;;;;22.50;55.90;;;;;;1550675;75;715;-67
2023/10/10 10:34:56;;;;;;;;;;;22.50;55.80;;;;;;1538658;75;1521;-65
2023/10/10 10:37:13;;;;;;;;;;;22.50;55.80;;;;;;1549888;75;768;-65
2023/10/10 10:39:34;;;;;;;;;;;22.50;55.80;;;;;;1549910;75;1727;-66
2023/10/10 10:41:42;;;;;;;;;;;22.40;55.70;;;;;;1535631;75;1932;-65
2023/10/10 10:43:41;;;;;;;;;;;22.50;55.90;;;;;;1543083;75;1589;-64
2023/10/10 10:45:51;;;;;;;;;;;22.50;55.90;;;;;;1545075;75;684;-66
2023/10/10 10:48:01;;;;;;;;;;;22.50;55.80;;;;;;1542780;75;1577;-69
2023/10/10 10:50:04;;;;;;;;;;;22.50;55.80;;;;;;1543422;75;1505;-65
2023/10/10 10:52:21;;;;;;;;;;;22.50;55.80;;;;;;1539590;75;753;-65
2023/10/10 10:54:36;;;;;;;;;;;22.40;55.70;;;;;;1529841;75;1220;-63
2023/10/10 10:56:38;;;;;;;;;;;22.40;55.70;;;;;;1544045;75;713;-63
2023/10/10 11:03:09;;;;;;;;;;;22.50;55.90;;;;;;1553210;75;1502;-63
2023/10/10 11:05:07;;;;;;;;;;;22.50;55.90;;;;;;1548133;75;1697;-62
2023/10/10 11:07:16;;;;;;;;;;;22.50;55.90;;;;;;1545381;75;770;-64
2023/10/10 11:09:23;;;;;;;;;;;22.40;55.70;;;;;;1539567;75;1610;-63
2023/10/10 11:13:35;;;;;;;;;;;22.50;55.90;;;;;;1537867;75;815;-62
2023/10/10 11:15:39;;;;;;;;;;;22.50;55.90;;;;;;1544386;75;748;-61
2023/10/10 11:17:42;;;;;;;;;;;22.50;55.90;;;;;;1545685;75;1509;-62
2023/10/10 11:19:46;;;;;;;;;;;22.50;56.00;;;;;;1542775;75;1407;-64
2023/10/10 11:21:49;;;;;;;;;;;22.40;55.80;;;;;;1543841;75;1952;-63
2023/10/10 11:23:52;;;;;;;;;;;22.40;55.80;;;;;;1532833;75;1855;-62
2023/10/10 11:26:00;;;;;;;;;;;22.50;56.00;;;;;;1547256;75;810;-63
2023/10/10 11:28:04;;;;;;;;;;;22.40;55.80;;;;;;1552017;75;685;-63
2023/10/10 11:30:08;;;;;;;;;;;22.50;56.00;;;;;;1546738;75;1191;-63
2023/10/10 11:32:11;;;;;;;;;;;22.40;55.80;;;;;;1548789;75;1674;-64
2023/10/10 11:34:26;;;;;;;;;;;22.40;55.80;;;;;;1540013;75;694;-63
2023/10/10 11:36:29;;;;;;;;;;;22.40;55.80;;;;;;1541986;75;1768;-63
2023/10/10 11:38:35;;;;;;;;;;;22.40;55.80;;;;;;1542368;75;899;-63
2023/10/10 11:40:36;;;;;;;;;;;22.40;55.80;;;;;;1542544;75;1941;-64
2023/10/10 11:42:38;;;;;;;;;;;22.50;56.00;;;;;;1544477;75;650;-63
2023/10/10 11:44:41;;;;;;;;;;;22.50;55.90;;;;;;1540867;75;956;-64
2023/10/10 11:46:43;;;;;;;;;;;22.50;55.90;;;;;;1540872;75;1595;-62
2023/10/10 11:48:45;;;;;;;;;;;22.40;55.80;;;;;;1542830;75;712;-64
2023/10/10 11:50:47;;;;;;;;;;;22.40;55.80;;;;;;1544005;75;1119;-64
2023/10/10 11:52:52;;;;;;;;;;;22.40;55.80;;;;;;1543183;75;804;-62
2023/10/10 11:55:00;;;;;;;;;;;22.50;56.00;;;;;;1542990;75;787;-63
2023/10/10 11:57:03;;;;;;;;;;;22.40;55.80;;;;;;1541061;75;763;-63
2023/10/10 11:59:17;;;;;;;;;;;22.40;55.80;;;;;;1541960;75;1431;-63
2023/10/10 12:01:18;;;;;;;;;;;22.50;56.00;;;;;;1545137;75;1941;-63
2023/10/10 12:03:34;;;;;;;;;;;22.40;55.80;;;;;;1546103;75;1662;-63
2023/10/10 12:07:31;;;;;;;;;;;22.40;55.80;;;;;;1535224;75;809;-63
2023/10/10 12:09:33;;;;;;;;;;;22.40;55.80;;;;;;1515463;77;1232;-63
2023/10/10 12:11:38;;;;;;;;;;;22.40;55.80;;;;;;1504665;77;1106;-63
2023/10/10 12:13:39;;;;;;;;;;;22.50;55.90;;;;;;1485755;78;1660;-63
2023/10/10 12:15:44;;;;;;;;;;;22.40;55.80;;;;;;1506019;77;726;-62
2023/10/10 12:17:45;;;;;;;;;;;22.50;56.00;;;;;;1543815;75;1664;-63
2023/10/10 12:19:46;;;;;;;;;;;22.40;55.90;;;;;;1543430;75;1147;-63
2023/10/10 12:21:48;;;;;;;;;;;22.40;55.80;;;;;;1541003;75;1951;-62
2023/10/10 12:23:52;;;;;;;;;;;22.40;55.80;;;;;;1541203;75;716;-64
2023/10/10 12:25:54;;;;;;;;;;;22.40;55.80;;;;;;1536094;75;707;-60
2023/10/10 12:28:00;;;;;;;;;;;22.40;55.80;;;;;;1541738;75;1605;-63
2023/10/10 12:29:59;;;;;;;;;;;22.50;56.00;;;;;;1547313;75;1667;-62
2023/10/10 12:32:14;;;;;;;;;;;22.40;55.80;;;;;;1540798;75;757;-63
2023/10/10 12:34:09;;;;;;;;;;;22.50;55.90;;;;;;1526520;75;1771;-63
2023/10/10 12:36:09;;;;;;;;;;;22.40;55.80;;;;;;1541981;75;1605;-61
2023/10/10 12:38:11;;;;;;;;;;;22.40;55.80;;;;;;1538849;75;774;-61
2023/10/10 12:40:14;;;;;;;;;;;22.40;55.80;;;;;;1542185;75;1185;-63
2023/10/10 12:42:16;;;;;;;;;;;22.40;55.80;;;;;;1543816;75;1928;-64
2023/10/10 12:44:18;;;;;;;;;;;22.40;55.80;;;;;;1536830;75;726;-64
2023/10/10 12:46:23;;;;;;;;;;;22.50;55.80;;;;;;1549111;75;692;-60
2023/10/10 12:48:25;;;;;;;;;;;22.40;55.80;;;;;;1544059;75;769;-63
2023/10/10 12:50:28;;;;;;;;;;;22.50;55.90;;;;;;1545594;75;1149;-60
2023/10/10 12:52:45;;;;;;;;;;;22.40;55.80;;;;;;1542982;75;778;-62
2023/10/10 12:54:36;;;;;;;;;;;22.50;55.90;;;;;;1530632;75;1576;-63
2023/10/10 12:56:49;;;;;;;;;;;22.40;55.80;;;;;;1543195;75;1670;-63
2023/10/10 12:58:51;;;;;;;;;;;22.40;55.80;;;;;;1542239;75;1692;-62
2023/10/10 13:00:51;;;;;;;;;;;22.40;55.80;;;;;;1531494;75;1946;-63
2023/10/10 13:02:53;;;;;;;;;;;22.40;55.80;;;;;;1542126;75;907;-63
2023/10/10 13:04:56;;;;;;;;;;;22.40;55.80;;;;;;1541937;75;695;-62
2023/10/10 13:07:04;;;;;;;;;;;22.40;55.80;;;;;;1538925;75;784;-62
2023/10/10 13:09:08;;;;;;;;;;;22.40;55.80;;;;;;1541983;75;704;-64
2023/10/10 13:11:19;;;;;;;;;;;22.40;55.80;;;;;;1543377;75;1125;-69
2023/10/10 13:13:26;;;;;;;;;;;22.40;55.80;;;;;;1538866;75;1588;-65
2023/10/10 13:15:27;;;;;;;;;;;22.40;55.80;;;;;;1541154;75;1674;-65
2023/10/10 13:19:27;;;;;;;;;;;22.40;55.80;;;;;;1534399;75;827;-67
2023/10/10 13:21:29;;;;;;;;;;;22.40;55.80;;;;;;1543744;75;1936;-65
2023/10/10 13:23:31;;;;;;;;;;;22.40;55.70;;;;;;1548796;75;1580;-65
2023/10/10 13:25:37;;;;;;;;;;;22.40;55.80;;;;;;1545375;75;791;-64
2023/10/10 13:27:39;;;;;;;;;;;22.40;55.70;;;;;;1542948;75;700;-65
2023/10/10 13:29:41;;;;;;;;;;;22.40;55.80;;;;;;1540747;75;658;-65
2023/10/10 13:31:49;;;;;;;;;;;22.40;55.80;;;;;;1547926;75;1190;-67
2023/10/10 13:33:47;;;;;;;;;;;22.40;55.80;;;;;;1541375;75;1598;-65
2023/10/10 13:35:49;;;;;;;;;;;22.40;55.80;;;;;;1539489;75;718;-71
2023/10/10 13:37:51;;;;;;;;;;;22.40;55.80;;;;;;1548345;75;1531;-66
2023/10/10 13:39:55;;;;;;;;;;;22.40;55.80;;;;;;1549066;75;1165;-65
2023/10/10 13:41:56;;;;;;;;;;;22.40;55.80;;;;;;1550116;75;1934;-66
2023/10/10 13:43:59;;;;;;;;;;;22.40;55.80;;;;;;1541260;75;679;-68
2023/10/10 13:46:02;;;;;;;;;;;22.40;55.80;;;;;;1539597;75;770;-67
2023/10/10 13:48:08;;;;;;;;;;;22.40;55.80;;;;;;1539112;75;786;-68
2023/10/10 13:52:20;;;;;;;;;;;22.40;55.80;;;;;;1527879;75;1661;-65
2023/10/10 13:54:21;;;;;;;;;;;22.50;55.90;;;;;;1545385;75;655;-66
2023/10/10 13:56:23;;;;;;;;;;;22.40;55.80;;;;;;1542748;75;750;-65
2023/10/10 13:58:25;;;;;;;;;;;22.40;55.80;;;;;;1541162;75;749;-66
2023/10/10 14:00:33;;;;;;;;;;;22.50;56.00;;;;;;1542311;75;1086;-68
2023/10/10 14:02:33;;;;;;;;;;;22.40;55.80;;;;;;1551174;75;1904;-66
2023/10/10 14:04:52;;;;;;;;;;;22.40;55.80;;;;;;1547574;75;731;-65
2023/10/10 14:06:47;;;;;;;;;;;22.40;55.80;;;;;;1534289;75;1502;-65
2023/10/10 14:08:49;;;;;;;;;;;22.40;55.80;;;;;;1551627;75;844;-65
2023/10/10 14:10:53;;;;;;;;;;;22.40;55.90;;;;;;1545828;75;1136;-65
2023/10/10 14:12:56;;;;;;;;;;;22.40;55.80;;;;;;1546602;75;2023;-68
2023/10/10 14:14:58;;;;;;;;;;;22.40;55.80;;;;;;1543272;75;781;-65
2023/10/10 14:16:59;;;;;;;;;;;22.40;55.80;;;;;;1539055;75;771;-65
2023/10/10 14:19:01;;;;;;;;;;;22.50;56.00;;;;;;1538802;75;777;-66
2023/10/10 14:21:10;;;;;;;;;;;22.40;55.90;;;;;;1544241;75;1582;-65
2023/10/10 14:23:12;;;;;;;;;;;22.40;55.90;;;;;;1543366;75;1850;-65
2023/10/10 14:25:14;;;;;;;;;;;22.40;55.80;;;;;;1539995;75;672;-65
2023/10/10 14:27:17;;;;;;;;;;;22.40;55.90;;;;;;1539398;75;737;-65
2023/10/10 14:29:19;;;;;;;;;;;22.40;55.80;;;;;;1544624;75;719;-67
2023/10/10 14:31:22;;;;;;;;;;;22.40;55.80;;;;;;1542609;75;1125;-69
2023/10/10 14:33:25;;;;;;;;;;;22.50;56.00;;;;;;1548584;75;769;-67
2023/10/10 14:35:27;;;;;;;;;;;22.40;55.90;;;;;;1545712;75;1607;-68
2023/10/10 14:37:31;;;;;;;;;;;22.40;55.90;;;;;;1547384;75;726;-64
2023/10/10 14:39:36;;;;;;;;;;;22.40;55.90;;;;;;1537866;75;1722;-66
2023/10/10 14:41:36;;;;;;;;;;;22.40;55.90;;;;;;1539971;75;1940;-67
2023/10/10 14:43:38;;;;;;;;;;;22.50;56.00;;;;;;1542699;75;736;-66
2023/10/10 14:45:44;;;;;;;;;;;22.40;55.90;;;;;;1544061;75;804;-64
2023/10/10 14:47:43;;;;;;;;;;;22.40;55.80;;;;;;1539340;75;1522;-64
2023/10/10 14:49:45;;;;;;;;;;;22.40;55.90;;;;;;1543312;75;1139;-65